createdAt,value
2023-05-09T00:02:54.744Z,16.75
2023-05-09T00:05:56.185Z,16.73
2023-05-09T00:08:57.707Z,16.66
2023-05-09T00:11:59.088Z,16.68
2023-05-09T00:15:00.472Z,16.64
2023-05-09T00:18:01.966Z,16.64
2023-05-09T00:21:04.232Z,16.63
2023-05-09T00:24:06.093Z,16.61
2023-05-09T00:27:07.490Z,16.57
2023-05-09T00:30:09.105Z,16.51
2023-05-09T00:33:10.778Z,16.44
2023-05-09T00:36:12.321Z,16.42
2023-05-09T00:39:13.696Z,16.42
2023-05-09T00:42:15.145Z,16.43
2023-05-09T00:45:16.571Z,16.38
2023-05-09T00:48:18.131Z,16.27
2023-05-09T00:51:20.506Z,16.22
2023-05-09T00:54:22.023Z,16.20
2023-05-09T00:57:23.524Z,16.22
2023-05-09T01:00:25.340Z,16.15
2023-05-09T01:03:27.366Z,16.09
2023-05-09T01:06:52.412Z,16.02
2023-05-09T01:10:07.706Z,16.07
2023-05-09T01:13:38.147Z,16.07
2023-05-09T01:16:55.053Z,16.02
2023-05-09T01:20:13.182Z,15.99
2023-05-09T01:23:41.398Z,15.92
2023-05-09T01:26:46.500Z,15.92
2023-05-09T01:29:51.433Z,15.95
2023-05-09T01:32:59.511Z,16.01
2023-05-09T01:36:09.524Z,16.02
2023-05-09T01:39:13.728Z,16.10
2023-05-09T01:42:16.471Z,16.17
2023-05-09T01:45:18.658Z,16.24
2023-05-09T01:48:21.957Z,16.27
2023-05-09T01:51:25.671Z,16.25
2023-05-09T01:54:28.515Z,16.29
2023-05-09T01:57:30.946Z,16.30
2023-05-09T02:00:34.792Z,16.30
2023-05-09T02:03:38.998Z,16.31
2023-05-09T02:06:41.660Z,16.27
2023-05-09T02:09:43.189Z,16.25
2023-05-09T02:12:44.686Z,16.27
2023-05-09T02:15:47.077Z,16.33
2023-05-09T02:18:48.607Z,16.36
2023-05-09T02:21:50.013Z,16.41
2023-05-09T02:24:51.573Z,16.39
2023-05-09T02:27:55.510Z,16.42
2023-05-09T02:30:59.932Z,16.41
2023-05-09T02:34:04.008Z,16.41
2023-05-09T02:37:05.456Z,16.34
2023-05-09T02:40:09.108Z,16.28
2023-05-09T02:43:10.873Z,16.23
2023-05-09T02:46:12.593Z,16.25
2023-05-09T02:49:26.830Z,16.23
2023-05-09T02:52:33.869Z,16.26
2023-05-09T02:55:35.418Z,16.30
2023-05-09T02:58:36.853Z,16.31
2023-05-09T03:01:38.369Z,16.32
2023-05-09T03:04:39.972Z,16.33
2023-05-09T03:07:42.663Z,16.35
2023-05-09T03:10:44.137Z,16.34
2023-05-09T03:13:45.605Z,16.35
2023-05-09T03:16:47.141Z,16.38
2023-05-09T03:19:56.633Z,16.40
2023-05-09T03:22:58.021Z,16.38
2023-05-09T03:25:59.456Z,16.39
2023-05-09T03:29:01.431Z,16.37
2023-05-09T03:32:02.894Z,16.30
2023-05-09T03:35:04.700Z,16.32
2023-05-09T03:38:07.570Z,16.33
2023-05-09T03:41:09.738Z,16.26
2023-05-09T03:44:11.316Z,16.23
2023-05-09T03:47:12.734Z,16.22
2023-05-09T03:50:14.948Z,16.27
2023-05-09T03:53:18.224Z,16.27
2023-05-09T03:56:22.413Z,16.26
2023-05-09T03:59:26.435Z,16.24
2023-05-09T04:02:28.475Z,16.23
2023-05-09T04:05:30.515Z,16.15
2023-05-09T04:08:33.351Z,16.15
2023-05-09T04:11:36.502Z,16.21
2023-05-09T04:14:42.026Z,16.21
2023-05-09T04:17:44.047Z,16.15
2023-05-09T04:20:46.295Z,16.10
2023-05-09T04:23:48.195Z,16.21
2023-05-09T04:26:52.045Z,16.17
2023-05-09T04:29:57.225Z,16.21
2023-05-09T04:32:58.789Z,16.23
2023-05-09T04:36:02.933Z,16.21
2023-05-09T04:39:08.100Z,16.17
2023-05-09T04:42:10.853Z,16.13
2023-05-09T04:45:12.448Z,16.15
2023-05-09T04:48:14.288Z,16.15
2023-05-09T04:51:15.728Z,16.19
2023-05-09T04:54:17.089Z,16.18
2023-05-09T04:57:19.334Z,16.18
2023-05-09T05:00:26.877Z,16.16
2023-05-09T05:03:28.279Z,16.17
2023-05-09T05:06:31.640Z,16.16
2023-05-09T05:09:33.977Z,16.12
2023-05-09T05:12:36.121Z,16.10
2023-05-09T05:15:38.958Z,16.16
2023-05-09T05:18:41.572Z,16.18
2023-05-09T05:21:43.871Z,16.20
2023-05-09T05:24:45.904Z,16.24
2023-05-09T05:27:48.522Z,16.25
2023-05-09T05:30:50.698Z,16.26
2023-05-09T05:33:52.102Z,16.33
2023-05-09T05:36:54.994Z,16.31
2023-05-09T05:39:56.618Z,16.32
2023-05-09T05:42:59.475Z,16.32
2023-05-09T05:46:02.007Z,16.36
2023-05-09T05:49:05.976Z,16.38
2023-05-09T05:52:08.682Z,16.48
2023-05-09T05:55:11.373Z,16.50
2023-05-09T05:58:12.914Z,16.47
2023-05-09T06:01:14.421Z,16.51
2023-05-09T06:04:16.613Z,16.52
2023-05-09T06:07:18.101Z,16.54
2023-05-09T06:10:20.149Z,16.57
2023-05-09T06:13:21.731Z,16.69
2023-05-09T06:16:27.878Z,16.70
2023-05-09T06:19:29.327Z,16.67
2023-05-09T06:22:30.759Z,16.72
2023-05-09T06:25:32.345Z,16.75
2023-05-09T06:28:33.756Z,16.79
2023-05-09T06:31:38.996Z,16.77
2023-05-09T06:34:41.972Z,16.82
2023-05-09T06:37:43.392Z,16.79
2023-05-09T06:40:44.819Z,16.77
2023-05-09T06:43:46.569Z,16.81
2023-05-09T06:46:48.051Z,16.86
2023-05-09T06:49:49.476Z,16.96
2023-05-09T06:52:50.874Z,16.98
2023-05-09T06:55:52.338Z,17.00
2023-05-09T06:58:53.867Z,17.01
2023-05-09T07:01:55.855Z,17.04
2023-05-09T07:04:57.401Z,17.00
2023-05-09T07:07:58.818Z,16.94
2023-05-09T07:11:00.358Z,16.88
2023-05-09T07:14:02.434Z,16.93
2023-05-09T07:17:21.296Z,17.04
2023-05-09T07:20:24.586Z,17.23
2023-05-09T07:23:26.996Z,17.26
2023-05-09T07:26:28.411Z,17.30
2023-05-09T07:29:29.855Z,17.35
2023-05-09T07:32:31.400Z,17.30
2023-05-09T07:35:32.866Z,17.37
2023-05-09T07:38:34.249Z,17.39
2023-05-09T07:41:35.622Z,17.43
2023-05-09T07:44:37.031Z,17.50
2023-05-09T07:47:38.452Z,17.64
2023-05-09T07:50:40.097Z,17.65
2023-05-09T07:53:41.501Z,17.80
2023-05-09T07:56:42.982Z,17.89
2023-05-09T07:59:44.399Z,17.95
2023-05-09T08:02:45.940Z,17.92
2023-05-09T08:05:47.464Z,18.01
2023-05-09T08:08:48.842Z,18.11
2023-05-09T08:11:50.242Z,18.13
2023-05-09T08:14:51.734Z,18.10
2023-05-09T08:17:53.159Z,18.07
2023-05-09T08:20:54.693Z,18.29
2023-05-09T08:23:56.802Z,18.38
2023-05-09T08:26:58.202Z,18.49
2023-05-09T08:29:59.683Z,18.56
2023-05-09T08:33:01.116Z,18.67
2023-05-09T08:36:03.026Z,18.73
2023-05-09T08:39:04.420Z,18.52
2023-05-09T08:42:06.028Z,18.40
2023-05-09T08:45:09.644Z,18.36
2023-05-09T08:48:11.640Z,18.42
2023-05-09T08:51:13.736Z,18.40
2023-05-09T08:54:15.398Z,18.48
2023-05-09T08:57:16.957Z,18.50
2023-05-09T09:00:20.817Z,18.55
2023-05-09T09:03:25.506Z,18.65
2023-05-09T09:06:28.555Z,18.76
2023-05-09T09:09:30.223Z,18.89
2023-05-09T09:12:33.652Z,18.87
2023-05-09T09:15:36.947Z,19.18
2023-05-09T09:18:39.963Z,19.49
2023-05-09T09:21:43.366Z,19.58
2023-05-09T09:24:45.329Z,19.59
2023-05-09T09:27:46.750Z,19.74
2023-05-09T09:30:48.414Z,19.79
2023-05-09T09:33:50.986Z,19.85
2023-05-09T09:36:52.415Z,19.90
2023-05-09T09:39:57.145Z,20.05
2023-05-09T09:42:58.589Z,20.12
2023-05-09T09:46:04.344Z,20.24
2023-05-09T09:49:05.861Z,20.26
2023-05-09T09:52:07.360Z,20.31
2023-05-09T09:55:09.310Z,20.46
2023-05-09T09:58:18.636Z,20.38
2023-05-09T10:01:20.782Z,20.41
2023-05-09T10:04:23.096Z,20.29
2023-05-09T10:07:24.598Z,20.16
2023-05-09T10:10:27.575Z,20.22
2023-05-09T10:13:29.334Z,20.41
2023-05-09T10:16:42.643Z,20.55
2023-05-09T10:19:47.747Z,20.65
2023-05-09T10:22:53.028Z,20.75
2023-05-09T10:26:08.777Z,20.72
2023-05-09T10:29:12.902Z,20.74
2023-05-09T10:32:31.634Z,20.71
2023-05-09T10:35:39.856Z,20.72
2023-05-09T10:38:42.668Z,20.83
2023-05-09T10:41:44.349Z,21.03
2023-05-09T10:44:47.757Z,21.06
2023-05-09T10:47:52.749Z,21.25
2023-05-09T10:50:55.142Z,21.22
2023-05-09T10:53:56.612Z,21.37
2023-05-09T10:56:58.088Z,21.49
2023-05-09T11:00:00.386Z,21.33
2023-05-09T11:03:06.736Z,21.27
2023-05-09T11:06:08.605Z,21.46
2023-05-09T11:09:33.416Z,21.51
2023-05-09T11:12:35.019Z,21.65
2023-05-09T11:15:36.794Z,21.57
2023-05-09T11:18:52.694Z,21.50
2023-05-09T11:22:03.026Z,21.54
2023-05-09T11:25:09.218Z,21.52
2023-05-09T11:28:12.127Z,21.60
2023-05-09T11:31:16.160Z,21.57
2023-05-09T11:34:19.931Z,21.58
2023-05-09T11:37:21.720Z,21.65
2023-05-09T11:40:24.059Z,21.43
2023-05-09T11:43:25.630Z,21.32
2023-05-09T11:46:27.268Z,21.33
2023-05-09T11:49:29.675Z,21.43
2023-05-09T11:52:33.281Z,21.63
2023-05-09T11:55:37.955Z,21.77
2023-05-09T11:58:39.666Z,21.84
2023-05-09T12:01:41.270Z,21.83
2023-05-09T12:04:44.033Z,21.69
2023-05-09T12:07:46.974Z,21.70
2023-05-09T12:10:48.571Z,21.57
2023-05-09T12:13:52.300Z,21.55
2023-05-09T12:16:53.942Z,21.67
2023-05-09T12:19:55.674Z,21.48
2023-05-09T12:22:57.066Z,21.41
2023-05-09T12:25:58.544Z,21.41
2023-05-09T12:29:00.192Z,21.55
2023-05-09T12:32:01.786Z,21.52
2023-05-09T12:35:03.388Z,21.30
2023-05-09T12:38:04.881Z,21.16
2023-05-09T12:41:15.442Z,21.03
2023-05-09T12:44:28.021Z,21.14
2023-05-09T12:47:31.621Z,21.43
2023-05-09T12:50:36.766Z,21.60
2023-05-09T12:53:40.580Z,21.84
2023-05-09T12:56:42.053Z,21.99
2023-05-09T12:59:44.177Z,21.93
2023-05-09T13:02:45.670Z,21.96
2023-05-09T13:05:56.540Z,22.07
2023-05-09T13:09:02.444Z,22.16
2023-05-09T13:12:04.250Z,22.27
2023-05-09T13:15:07.225Z,22.28
2023-05-09T13:18:08.858Z,22.13
2023-05-09T13:21:10.296Z,22.24
2023-05-09T13:24:11.674Z,22.31
2023-05-09T13:27:13.308Z,22.31
2023-05-09T13:30:15.603Z,22.42
2023-05-09T13:33:25.805Z,22.49
2023-05-09T13:36:28.269Z,22.55
2023-05-09T13:39:31.645Z,22.33
2023-05-09T13:42:34.755Z,22.21
2023-05-09T13:45:36.284Z,22.22
2023-05-09T13:48:37.749Z,22.09
2023-05-09T13:51:39.344Z,22.15
2023-05-09T13:54:40.835Z,22.04
2023-05-09T13:57:43.014Z,22.01
2023-05-09T14:00:44.546Z,22.16
2023-05-09T14:03:48.948Z,22.21
2023-05-09T14:06:50.416Z,22.15
2023-05-09T14:09:58.729Z,22.19
2023-05-09T14:13:10.710Z,22.24
2023-05-09T14:16:12.315Z,21.99
2023-05-09T14:19:17.306Z,21.87
2023-05-09T14:22:18.707Z,21.75
2023-05-09T14:25:20.302Z,21.69
2023-05-09T14:28:21.709Z,21.80
2023-05-09T14:31:23.101Z,21.73
2023-05-09T14:34:24.513Z,21.65
2023-05-09T14:37:25.944Z,21.57
2023-05-09T14:40:31.766Z,21.56
2023-05-09T14:43:33.425Z,21.53
2023-05-09T14:46:35.700Z,21.59
2023-05-09T14:49:37.662Z,21.69
2023-05-09T14:52:39.030Z,21.80
2023-05-09T14:55:40.685Z,21.67
2023-05-09T14:58:42.158Z,21.61
2023-05-09T15:01:45.335Z,21.53
2023-05-09T15:04:46.735Z,21.34
2023-05-09T15:07:48.151Z,21.26
2023-05-09T15:10:50.734Z,21.26
2023-05-09T15:13:53.363Z,21.18
2023-05-09T15:16:57.181Z,21.20
2023-05-09T15:19:58.918Z,21.21
2023-05-09T15:23:00.532Z,21.16
2023-05-09T15:26:02.216Z,21.16
2023-05-09T15:29:03.654Z,21.18
2023-05-09T15:32:05.336Z,21.16
2023-05-09T15:35:07.244Z,21.11
2023-05-09T15:38:11.955Z,21.12
2023-05-09T15:41:13.336Z,21.06
2023-05-09T15:44:14.856Z,20.90
2023-05-09T15:47:16.533Z,20.91
2023-05-09T15:50:18.156Z,20.78
2023-05-09T15:53:51.234Z,20.82
2023-05-09T15:56:52.771Z,20.87
2023-05-09T15:59:57.105Z,20.90
2023-05-09T16:02:58.709Z,20.78
2023-05-09T16:06:00.604Z,20.89
2023-05-09T16:09:03.707Z,20.92
2023-05-09T16:12:05.444Z,20.84
2023-05-09T16:15:08.214Z,20.75
2023-05-09T16:18:09.824Z,20.80
2023-05-09T16:21:12.196Z,20.84
2023-05-09T16:24:13.809Z,20.79
2023-05-09T16:27:15.476Z,20.68
2023-05-09T16:30:17.286Z,20.71
2023-05-09T16:33:19.516Z,20.72
2023-05-09T16:36:21.918Z,20.68
2023-05-09T16:39:23.766Z,20.71
2023-05-09T16:42:25.749Z,20.68
2023-05-09T16:45:27.489Z,20.74
2023-05-09T16:48:28.938Z,20.84
2023-05-09T16:51:30.549Z,20.84
2023-05-09T16:54:32.075Z,20.84
2023-05-09T16:57:33.557Z,20.80
2023-05-09T17:00:35.238Z,20.73
2023-05-09T17:03:36.671Z,20.74
2023-05-09T17:06:38.113Z,20.75
2023-05-09T17:09:40.184Z,20.77
2023-05-09T17:12:41.884Z,20.77
2023-05-09T17:15:44.264Z,20.68
2023-05-09T17:18:47.289Z,20.69
2023-05-09T17:21:49.080Z,20.69
2023-05-09T17:24:50.520Z,20.57
2023-05-09T17:27:53.597Z,20.42
2023-05-09T17:30:55.234Z,20.33
2023-05-09T17:33:56.772Z,20.28
2023-05-09T17:36:58.855Z,20.20
2023-05-09T17:40:00.308Z,20.20
2023-05-09T17:43:01.707Z,20.25
2023-05-09T17:46:03.930Z,20.16
2023-05-09T17:49:08.051Z,19.90
2023-05-09T17:52:09.439Z,19.75
2023-05-09T17:55:11.437Z,19.64
2023-05-09T17:58:14.678Z,19.47
2023-05-09T18:01:16.109Z,19.35
2023-05-09T18:04:17.513Z,19.12
2023-05-09T18:07:19.504Z,18.87
2023-05-09T18:10:20.941Z,18.56
2023-05-09T18:13:23.122Z,18.49
2023-05-09T18:16:24.674Z,18.34
2023-05-09T18:19:26.600Z,18.21
2023-05-09T18:22:28.015Z,18.09
2023-05-09T18:25:29.406Z,17.91
2023-05-09T18:28:31.827Z,17.81
2023-05-09T18:31:38.506Z,17.69
2023-05-09T18:34:40.590Z,17.59
2023-05-09T18:37:42.010Z,17.49
2023-05-09T18:40:43.511Z,17.50
2023-05-09T18:43:47.708Z,17.48
2023-05-09T18:46:49.175Z,17.53
2023-05-09T18:49:50.562Z,17.55
2023-05-09T18:52:51.939Z,17.54
2023-05-09T18:55:53.331Z,17.55
2023-05-09T18:58:55.003Z,17.42
2023-05-09T19:01:56.414Z,17.30
2023-05-09T19:05:01.596Z,17.32
2023-05-09T19:08:03.584Z,17.21
2023-05-09T19:11:04.989Z,17.17
2023-05-09T19:14:06.503Z,17.21
2023-05-09T19:17:08.249Z,17.29
2023-05-09T19:20:10.543Z,17.14
2023-05-09T19:23:12.053Z,17.03
2023-05-09T19:26:15.370Z,17.06
2023-05-09T19:29:16.756Z,17.00
2023-05-09T19:32:18.705Z,17.03
2023-05-09T19:35:20.465Z,17.00
2023-05-09T19:38:21.978Z,17.03
2023-05-09T19:41:23.545Z,17.00
2023-05-09T19:44:24.933Z,17.02
2023-05-09T19:47:27.213Z,17.07
2023-05-09T19:50:28.653Z,17.03
2023-05-09T19:53:30.069Z,16.89
2023-05-09T19:56:31.524Z,16.89
2023-05-09T19:59:32.987Z,16.89
2023-05-09T20:02:34.874Z,16.89
2023-05-09T20:05:36.354Z,16.90
2023-05-09T20:08:37.951Z,16.87
2023-05-09T20:11:39.377Z,16.88
2023-05-09T20:14:40.790Z,16.83
2023-05-09T20:17:42.309Z,16.88
2023-05-09T20:20:43.759Z,16.90
2023-05-09T20:23:45.931Z,16.85
2023-05-09T20:26:47.426Z,16.83
2023-05-09T20:29:48.964Z,16.83
2023-05-09T20:32:50.711Z,16.86
2023-05-09T20:35:52.174Z,16.85
2023-05-09T20:38:53.700Z,16.87
2023-05-09T20:41:55.820Z,16.83
2023-05-09T20:44:57.486Z,16.74
2023-05-09T20:47:59.277Z,16.67
2023-05-09T20:51:00.790Z,16.64
2023-05-09T20:54:02.334Z,16.54
2023-05-09T20:57:03.857Z,16.53
2023-05-09T21:00:07.478Z,16.50
2023-05-09T21:03:10.054Z,16.42
2023-05-09T21:06:11.664Z,16.40
2023-05-09T21:09:13.264Z,16.36
2023-05-09T21:12:14.756Z,16.38
2023-05-09T21:15:16.198Z,16.34
2023-05-09T21:18:19.198Z,16.33
2023-05-09T21:21:20.625Z,16.30
2023-05-09T21:24:21.994Z,16.27
2023-05-09T21:27:23.398Z,16.26
2023-05-09T21:30:24.791Z,16.22
2023-05-09T21:33:26.197Z,16.26
2023-05-09T21:36:28.046Z,16.24
2023-05-09T21:39:29.434Z,16.20
2023-05-09T21:42:30.838Z,16.21
2023-05-09T21:45:32.296Z,16.19
2023-05-09T21:48:33.916Z,16.17
2023-05-09T21:51:35.439Z,16.18
2023-05-09T21:54:36.916Z,16.13
2023-05-09T21:57:38.327Z,16.10
2023-05-09T22:00:39.727Z,16.10
2023-05-09T22:03:41.277Z,16.08
2023-05-09T22:06:42.833Z,16.01
2023-05-09T22:09:44.221Z,15.96
2023-05-09T22:12:45.864Z,15.91
2023-05-09T22:15:47.395Z,15.86
2023-05-09T22:18:48.872Z,15.77
2023-05-09T22:21:50.316Z,15.72
2023-05-09T22:24:51.733Z,15.72
2023-05-09T22:27:54.571Z,15.70
2023-05-09T22:30:55.944Z,15.65
2023-05-09T22:33:57.332Z,15.65
2023-05-09T22:36:58.745Z,15.63
2023-05-09T22:40:03.055Z,15.59
2023-05-09T22:43:04.549Z,15.57
2023-05-09T22:46:06.052Z,15.60
2023-05-09T22:49:07.594Z,15.59
2023-05-09T22:52:09.792Z,15.49
2023-05-09T22:55:11.355Z,15.47
2023-05-09T22:58:12.829Z,15.50
2023-05-09T23:01:14.254Z,15.49
2023-05-09T23:04:16.807Z,15.47
2023-05-09T23:07:18.200Z,15.51
2023-05-09T23:10:19.689Z,15.43
2023-05-09T23:13:21.166Z,15.38
2023-05-09T23:16:22.707Z,15.37
2023-05-09T23:19:24.246Z,15.35
2023-05-09T23:22:25.618Z,15.23
2023-05-09T23:25:26.998Z,15.26
2023-05-09T23:28:28.377Z,15.27
2023-05-09T23:31:29.847Z,15.28
2023-05-09T23:34:31.298Z,15.30
2023-05-09T23:37:32.673Z,15.29
2023-05-09T23:40:34.141Z,15.26
2023-05-09T23:43:35.524Z,15.23
2023-05-09T23:46:36.984Z,15.25
2023-05-09T23:49:38.388Z,15.22
2023-05-09T23:52:41.720Z,15.22
2023-05-09T23:55:43.166Z,15.22
2023-05-09T23:58:44.559Z,15.19
